METAR Data
IDs: Format: Raw Decoded Include TAF

Data at: 2131 UTC 01 Dec 2021

METAR for:KOSU (Columbus/Ohio State, OH, US)
Text:KOSU 012053Z 13008KT 6SM BR BKN080 OVC110 07/05 A2991 RMK AO2 RAE24 SLP137 P0000 60002 T00670050 58037
Temperature: 6.7°C ( 44°F)
Dewpoint: 5.0°C ( 41°F) [RH = 89%]
Pressure (altimeter):29.91 inches Hg (1013.0 mb) [Sea level pressure: 1013.7 mb]
Winds:from the SE (130 degrees) at 9 MPH (8 knots; 4.1 m/s)
Visibility: 6 sm ( 10 km)
Ceiling:8000 feet AGL
Clouds: broken clouds at 8000 feet AGL, overcast cloud deck at 11000 feet AGL
Weather:BR (mist)